createdAt,value
2019-03-23T00:04:57.942Z,13.12
2019-03-23T00:10:11.498Z,13.11
2019-03-23T00:15:26.563Z,13.11
2019-03-23T00:20:30.399Z,13.13
2019-03-23T00:25:37.155Z,13.08
2019-03-23T00:30:40.796Z,13.00
2019-03-23T00:35:47.216Z,12.95
2019-03-23T00:40:50.893Z,12.90
2019-03-23T00:45:54.428Z,12.86
2019-03-23T00:50:58.100Z,12.75
2019-03-23T00:56:16.593Z,12.66
2019-03-23T01:01:20.570Z,12.60
2019-03-23T01:06:24.830Z,12.63
2019-03-23T01:11:28.821Z,12.69
2019-03-23T01:16:41.327Z,12.73
2019-03-23T01:21:44.315Z,12.64
2019-03-23T01:26:48.025Z,12.89
2019-03-23T01:31:52.131Z,12.84
2019-03-23T01:37:02.669Z,12.70
2019-03-23T01:42:02.358Z,12.52
2019-03-23T01:47:06.735Z,12.40
2019-03-23T01:52:10.384Z,12.26
2019-03-23T01:57:13.967Z,12.22
2019-03-23T02:02:17.604Z,12.23
2019-03-23T02:07:21.151Z,12.18
2019-03-23T02:12:24.682Z,12.08
2019-03-23T02:17:28.334Z,12.06
2019-03-23T02:22:31.962Z,12.11
2019-03-23T02:27:35.548Z,12.14
2019-03-23T02:32:39.137Z,12.19
2019-03-23T02:37:42.842Z,12.24
2019-03-23T02:42:46.498Z,12.31
2019-03-23T02:47:50.071Z,12.27
2019-03-23T02:52:53.721Z,12.22
2019-03-23T02:57:57.507Z,12.13
2019-03-23T03:03:01.037Z,12.08
2019-03-23T03:08:04.542Z,11.98
2019-03-23T03:13:08.200Z,11.83
2019-03-23T03:18:11.837Z,11.89
2019-03-23T03:23:15.386Z,11.93
2019-03-23T03:28:19.073Z,11.99
2019-03-23T03:33:22.684Z,12.07
2019-03-23T03:38:26.357Z,12.05
2019-03-23T03:43:29.927Z,11.92
2019-03-23T03:48:33.458Z,12.04
2019-03-23T03:53:36.999Z,12.07
2019-03-23T03:58:40.542Z,11.94
2019-03-23T04:03:44.137Z,11.59
2019-03-23T04:08:47.819Z,11.21
2019-03-23T04:13:51.429Z,11.08
2019-03-23T04:18:55.031Z,11.02
2019-03-23T04:23:58.551Z,11.03
2019-03-23T04:29:02.266Z,11.32
2019-03-23T04:34:05.789Z,11.36
2019-03-23T04:39:09.326Z,11.29
2019-03-23T04:44:12.895Z,11.35
2019-03-23T04:49:16.405Z,11.20
2019-03-23T04:54:19.959Z,11.16
2019-03-23T04:59:23.614Z,11.11
2019-03-23T05:04:27.195Z,11.02
2019-03-23T05:09:30.737Z,11.16
2019-03-23T05:14:34.426Z,11.20
2019-03-23T05:19:37.986Z,11.30
2019-03-23T05:24:41.624Z,11.27
2019-03-23T05:29:45.203Z,11.23
2019-03-23T05:34:48.838Z,11.20
2019-03-23T05:39:52.417Z,11.15
2019-03-23T05:44:55.931Z,11.11
2019-03-23T05:49:59.530Z,10.95
2019-03-23T05:55:03.102Z,10.98
2019-03-23T06:00:07.371Z,11.23
2019-03-23T06:05:10.912Z,11.32
2019-03-23T06:10:14.438Z,11.44
2019-03-23T06:15:17.991Z,11.48
2019-03-23T06:20:21.507Z,11.53
2019-03-23T06:25:25.091Z,11.61
2019-03-23T06:30:28.623Z,11.74
2019-03-23T06:35:32.183Z,11.59
2019-03-23T06:40:35.831Z,11.53
2019-03-23T06:45:39.684Z,11.46
2019-03-23T06:50:43.195Z,11.28
2019-03-23T06:55:46.760Z,11.47
2019-03-23T07:00:50.613Z,11.72
2019-03-23T07:05:54.138Z,11.89
2019-03-23T07:10:59.740Z,11.88
2019-03-23T07:16:04.230Z,11.94
2019-03-23T07:21:08.717Z,12.12
2019-03-23T07:26:14.210Z,12.08
2019-03-23T07:31:18.381Z,12.09
2019-03-23T07:36:21.949Z,11.98
2019-03-23T07:41:25.480Z,11.93
2019-03-23T07:46:29.015Z,11.98
2019-03-23T07:51:32.685Z,12.09
2019-03-23T07:56:36.190Z,11.83
2019-03-23T08:01:39.833Z,11.98
2019-03-23T08:06:43.366Z,11.84
2019-03-23T08:11:46.885Z,11.78
2019-03-23T08:16:50.410Z,11.69
2019-03-23T08:21:54.049Z,11.76
2019-03-23T08:26:57.564Z,11.72
2019-03-23T08:32:01.106Z,11.72
2019-03-23T08:37:04.904Z,11.88
2019-03-23T08:42:08.480Z,11.99
2019-03-23T08:47:12.099Z,12.14
2019-03-23T08:52:15.657Z,12.62
2019-03-23T08:57:19.293Z,13.02
2019-03-23T09:02:22.859Z,13.30
2019-03-23T09:07:26.442Z,13.59
2019-03-23T09:12:30.008Z,13.72
2019-03-23T09:17:33.575Z,13.99
2019-03-23T09:22:37.219Z,14.06
2019-03-23T09:27:40.723Z,13.99
2019-03-23T09:32:44.362Z,14.03
2019-03-23T09:37:47.880Z,13.94
2019-03-23T09:42:51.475Z,13.84
2019-03-23T09:47:54.990Z,13.89
2019-03-23T09:52:58.536Z,13.97
2019-03-23T09:58:02.179Z,14.02
2019-03-23T10:03:05.765Z,14.07
2019-03-23T10:08:09.333Z,14.10
2019-03-23T10:13:12.876Z,14.33
2019-03-23T10:18:16.549Z,14.52
2019-03-23T10:23:20.166Z,14.52
2019-03-23T10:28:23.760Z,14.64
2019-03-23T10:33:27.273Z,15.06
2019-03-23T10:38:30.792Z,15.22
2019-03-23T10:43:34.334Z,15.65
2019-03-23T10:48:38.095Z,15.91
2019-03-23T10:53:41.675Z,16.10
2019-03-23T10:58:45.273Z,16.26
2019-03-23T11:03:48.893Z,16.31
2019-03-23T11:08:52.568Z,16.88
2019-03-23T11:13:56.206Z,17.05
2019-03-23T11:18:59.764Z,17.07
2019-03-23T11:24:03.366Z,17.47
2019-03-23T11:29:08.462Z,17.65
2019-03-23T11:34:17.820Z,17.70
2019-03-23T11:39:17.849Z,17.76
2019-03-23T11:44:21.443Z,18.07
2019-03-23T11:49:25.053Z,18.02
2019-03-23T11:54:28.624Z,18.05
2019-03-23T11:59:32.220Z,18.03
2019-03-23T12:04:35.778Z,18.00
2019-03-23T12:09:39.342Z,18.09
2019-03-23T12:14:42.898Z,18.14
2019-03-23T12:19:46.431Z,18.35
2019-03-23T12:24:49.969Z,18.81
2019-03-23T12:29:53.580Z,18.81
2019-03-23T12:34:57.147Z,18.82
2019-03-23T12:40:00.713Z,18.86
2019-03-23T12:45:05.187Z,18.93
2019-03-23T12:50:09.221Z,19.05
2019-03-23T12:55:12.782Z,19.18
2019-03-23T13:00:17.790Z,19.17
2019-03-23T13:05:21.471Z,19.16
2019-03-23T13:10:25.027Z,19.23
2019-03-23T13:15:28.583Z,19.33
2019-03-23T13:20:32.249Z,19.48
2019-03-23T13:25:35.886Z,19.54
2019-03-23T13:30:39.432Z,19.39
2019-03-23T13:35:42.995Z,19.54
2019-03-23T13:40:46.528Z,19.29
2019-03-23T13:45:50.082Z,19.22
2019-03-23T13:50:53.824Z,18.82
2019-03-23T13:55:57.450Z,18.65
2019-03-23T14:01:01.020Z,18.54
2019-03-23T14:06:04.818Z,18.29
2019-03-23T14:11:08.337Z,18.11
2019-03-23T14:16:11.861Z,17.73
2019-03-23T14:21:15.392Z,17.39
2019-03-23T14:26:19.077Z,17.20
2019-03-23T14:31:22.680Z,16.83
2019-03-23T14:36:27.944Z,16.87
2019-03-23T14:41:32.693Z,16.74
2019-03-23T14:46:36.315Z,16.87
2019-03-23T14:51:39.867Z,16.94
2019-03-23T14:56:43.438Z,16.93
2019-03-23T15:01:50.420Z,17.04
2019-03-23T15:06:56.408Z,16.67
2019-03-23T15:12:01.187Z,16.59
2019-03-23T15:17:04.810Z,16.53
2019-03-23T15:22:08.631Z,16.43
2019-03-23T15:27:14.061Z,16.30
2019-03-23T15:32:17.717Z,16.15
2019-03-23T15:37:21.285Z,15.67
2019-03-23T15:42:25.226Z,15.46
2019-03-23T15:47:29.054Z,15.57
2019-03-23T15:52:33.034Z,15.52
2019-03-23T15:57:36.969Z,15.49
2019-03-23T16:02:41.016Z,15.29
2019-03-23T16:07:47.325Z,15.23
